sensor_id;sensor_type;location;lat;lon;timestamp;P1;durP1;ratioP1;P2;durP2;ratioP2
35757;SDS011;21879;50.110;18.900;2023-10-08T00:07:14;8.50;;;2.90;;
35757;SDS011;21879;50.110;18.900;2023-10-08T00:17:47;8.70;;;3.50;;
35757;SDS011;21879;50.110;18.900;2023-10-08T00:28:15;5.60;;;3.20;;
35757;SDS011;21879;50.110;18.900;2023-10-08T00:38:44;9.70;;;5.30;;
35757;SDS011;21879;50.110;18.900;2023-10-08T00:49:14;8.40;;;4.00;;
35757;SDS011;21879;50.110;18.900;2023-10-08T00:59:59;6.30;;;3.70;;
35757;SDS011;21879;50.110;18.900;2023-10-08T01:10:28;7.60;;;3.10;;
35757;SDS011;21879;50.110;18.900;2023-10-08T01:20:57;3.70;;;2.20;;
35757;SDS011;21879;50.110;18.900;2023-10-08T01:31:36;3.00;;;1.80;;
35757;SDS011;21879;50.110;18.900;2023-10-08T01:42:05;2.10;;;1.30;;
35757;SDS011;21879;50.110;18.900;2023-10-08T01:52:40;2.10;;;1.50;;
35757;SDS011;21879;50.110;18.900;2023-10-08T02:03:11;1.20;;;1.00;;
35757;SDS011;21879;50.110;18.900;2023-10-08T02:13:41;0.50;;;0.50;;
35757;SDS011;21879;50.110;18.900;2023-10-08T02:24:12;0.60;;;0.30;;
35757;SDS011;21879;50.110;18.900;2023-10-08T02:34:40;0.30;;;0.20;;
35757;SDS011;21879;50.110;18.900;2023-10-08T02:45:10;1.10;;;0.40;;
35757;SDS011;21879;50.110;18.900;2023-10-08T02:55:41;0.40;;;0.40;;
35757;SDS011;21879;50.110;18.900;2023-10-08T03:06:09;0.60;;;0.20;;
35757;SDS011;21879;50.110;18.900;2023-10-08T03:16:39;1.10;;;0.40;;
35757;SDS011;21879;50.110;18.900;2023-10-08T03:27:07;0.80;;;0.40;;
35757;SDS011;21879;50.110;18.900;2023-10-08T03:37:45;2.00;;;0.60;;
35757;SDS011;21879;50.110;18.900;2023-10-08T03:48:15;2.80;;;0.70;;
35757;SDS011;21879;50.110;18.900;2023-10-08T03:58:47;2.10;;;0.70;;
35757;SDS011;21879;50.110;18.900;2023-10-08T04:09:15;1.20;;;0.60;;
35757;SDS011;21879;50.110;18.900;2023-10-08T04:19:48;2.20;;;1.20;;
35757;SDS011;21879;50.110;18.900;2023-10-08T04:30:17;0.60;;;0.50;;
35757;SDS011;21879;50.110;18.900;2023-10-08T04:40:46;1.50;;;0.60;;
35757;SDS011;21879;50.110;18.900;2023-10-08T04:51:15;2.10;;;0.60;;
35757;SDS011;21879;50.110;18.900;2023-10-08T05:01:47;1.40;;;0.80;;
35757;SDS011;21879;50.110;18.900;2023-10-08T05:12:35;3.30;;;0.70;;
35757;SDS011;21879;50.110;18.900;2023-10-08T05:23:11;1.00;;;0.60;;
35757;SDS011;21879;50.110;18.900;2023-10-08T05:34:06;1.60;;;0.60;;
35757;SDS011;21879;50.110;18.900;2023-10-08T05:44:44;1.90;;;1.00;;
35757;SDS011;21879;50.110;18.900;2023-10-08T05:55:32;1.60;;;0.70;;
35757;SDS011;21879;50.110;18.900;2023-10-08T06:06:07;0.90;;;0.50;;
35757;SDS011;21879;50.110;18.900;2023-10-08T06:16:53;1.40;;;0.60;;
35757;SDS011;21879;50.110;18.900;2023-10-08T06:27:38;2.70;;;0.90;;
35757;SDS011;21879;50.110;18.900;2023-10-08T06:48:34;4.20;;;1.60;;
35757;SDS011;21879;50.110;18.900;2023-10-08T07:09:28;1.90;;;1.10;;
35757;SDS011;21879;50.110;18.900;2023-10-08T07:20:01;1.10;;;0.70;;
35757;SDS011;21879;50.110;18.900;2023-10-08T07:30:38;1.70;;;1.00;;
35757;SDS011;21879;50.110;18.900;2023-10-08T07:41:10;3.70;;;1.40;;
35757;SDS011;21879;50.110;18.900;2023-10-08T07:51:39;4.80;;;1.30;;
35757;SDS011;21879;50.110;18.900;2023-10-08T08:02:14;5.80;;;2.20;;
35757;SDS011;21879;50.110;18.900;2023-10-08T08:12:53;4.60;;;2.40;;
35757;SDS011;21879;50.110;18.900;2023-10-08T08:23:22;6.00;;;2.30;;
35757;SDS011;21879;50.110;18.900;2023-10-08T08:33:49;3.20;;;2.30;;
35757;SDS011;21879;50.110;18.900;2023-10-08T08:44:24;3.70;;;1.90;;
35757;SDS011;21879;50.110;18.900;2023-10-08T08:54:58;5.00;;;1.80;;
35757;SDS011;21879;50.110;18.900;2023-10-08T09:05:28;4.20;;;2.20;;
35757;SDS011;21879;50.110;18.900;2023-10-08T09:16:06;3.60;;;1.90;;
35757;SDS011;21879;50.110;18.900;2023-10-08T09:26:37;3.90;;;1.90;;
35757;SDS011;21879;50.110;18.900;2023-10-08T09:37:05;4.30;;;1.40;;
35757;SDS011;21879;50.110;18.900;2023-10-08T09:47:34;4.60;;;1.20;;
35757;SDS011;21879;50.110;18.900;2023-10-08T09:58:04;2.60;;;1.10;;
35757;SDS011;21879;50.110;18.900;2023-10-08T10:08:35;2.00;;;1.10;;
35757;SDS011;21879;50.110;18.900;2023-10-08T10:19:03;4.50;;;1.40;;
35757;SDS011;21879;50.110;18.900;2023-10-08T10:29:31;1.90;;;0.90;;
35757;SDS011;21879;50.110;18.900;2023-10-08T10:39:59;2.90;;;0.90;;
